createdAt,value
2018-11-13T00:00:04.206Z,0
2018-11-13T00:00:44.591Z,0
2018-11-13T00:01:25.024Z,0
2018-11-13T00:02:05.434Z,0
2018-11-13T00:02:45.805Z,0
2018-11-13T00:03:26.165Z,0
2018-11-13T00:04:06.632Z,0
2018-11-13T00:04:47.070Z,0
2018-11-13T00:05:27.534Z,0
2018-11-13T00:06:07.933Z,0
2018-11-13T00:06:48.445Z,0
2018-11-13T00:07:28.883Z,0
2018-11-13T00:08:09.256Z,0
2018-11-13T00:08:49.773Z,0
2018-11-13T00:09:30.090Z,0
2018-11-13T00:10:10.534Z,0
2018-11-13T00:10:51.181Z,0
2018-11-13T00:11:32.800Z,0
2018-11-13T00:12:13.209Z,0
2018-11-13T00:12:53.698Z,0
2018-11-13T00:13:34.132Z,0
2018-11-13T00:14:14.477Z,0
2018-11-13T00:14:54.939Z,0
2018-11-13T00:15:35.399Z,0
2018-11-13T00:16:16.040Z,0
2018-11-13T00:16:56.459Z,0
2018-11-13T00:17:36.814Z,0
2018-11-13T00:18:17.301Z,0
2018-11-13T00:18:57.820Z,0
2018-11-13T00:19:38.309Z,0
2018-11-13T00:20:19.503Z,0
2018-11-13T00:21:00.685Z,0
2018-11-13T00:21:41.358Z,0
2018-11-13T00:22:21.820Z,0
2018-11-13T00:23:02.241Z,0
2018-11-13T00:23:42.815Z,0
2018-11-13T00:24:24.347Z,0
2018-11-13T00:25:05.822Z,0
2018-11-13T00:25:45.848Z,0
2018-11-13T00:26:34.519Z,0
2018-11-13T00:27:15.194Z,0
2018-11-13T00:27:55.695Z,0
2018-11-13T00:28:36.988Z,0
2018-11-13T00:29:18.684Z,0
2018-11-13T00:30:00.379Z,0
2018-11-13T00:30:46.046Z,0
2018-11-13T00:31:30.668Z,0
2018-11-13T00:32:13.038Z,0
2018-11-13T00:34:50.492Z,0
2018-11-13T00:35:43.431Z,0
2018-11-13T00:36:36.586Z,0
2018-11-13T00:37:34.131Z,0
2018-11-13T00:38:38.832Z,0
2018-11-13T00:39:33.595Z,0
2018-11-13T00:41:31.297Z,0
2018-11-13T00:42:11.644Z,0
2018-11-13T00:42:52.089Z,0
2018-11-13T00:43:32.463Z,0
2018-11-13T00:44:12.871Z,0
2018-11-13T00:44:53.285Z,0
2018-11-13T00:45:33.762Z,0
2018-11-13T00:46:14.107Z,0
2018-11-13T00:46:54.507Z,0
2018-11-13T00:47:34.893Z,0
2018-11-13T00:48:15.431Z,0
2018-11-13T00:48:55.697Z,0
2018-11-13T00:49:36.129Z,0
2018-11-13T00:50:16.528Z,0
2018-11-13T00:52:29.225Z,0
2018-11-13T00:53:09.593Z,0
2018-11-13T00:53:50.072Z,0
2018-11-13T00:54:30.450Z,0
2018-11-13T00:55:11.056Z,0
2018-11-13T00:55:51.823Z,0
2018-11-13T00:56:32.235Z,0
2018-11-13T00:57:12.643Z,0
2018-11-13T00:57:53.313Z,0
2018-11-13T00:58:33.718Z,0
2018-11-13T00:59:14.105Z,0
2018-11-13T00:59:54.468Z,0
2018-11-13T01:00:34.924Z,0
2018-11-13T01:01:15.259Z,0
2018-11-13T01:01:55.723Z,0
2018-11-13T01:02:36.103Z,0
2018-11-13T01:03:16.491Z,0
2018-11-13T01:03:56.888Z,0
2018-11-13T01:04:37.321Z,0
2018-11-13T01:05:17.779Z,0
2018-11-13T01:05:58.105Z,0
2018-11-13T01:06:38.527Z,0
2018-11-13T01:07:18.913Z,0
2018-11-13T01:07:59.312Z,0
2018-11-13T01:08:39.742Z,0
2018-11-13T01:09:20.157Z,0
2018-11-13T01:10:00.563Z,0
2018-11-13T01:10:40.961Z,0
2018-11-13T01:11:21.408Z,0
2018-11-13T01:12:01.767Z,0
2018-11-13T01:12:42.199Z,0
2018-11-13T01:13:22.633Z,0
2018-11-13T01:14:03.039Z,0
2018-11-13T01:14:43.445Z,0
2018-11-13T01:15:23.874Z,0
2018-11-13T01:16:04.288Z,0
2018-11-13T01:16:44.701Z,0
2018-11-13T01:17:25.188Z,0
2018-11-13T01:18:05.537Z,0
2018-11-13T01:18:45.938Z,0
2018-11-13T01:19:26.387Z,0
2018-11-13T01:20:06.763Z,0
2018-11-13T01:20:47.185Z,0
2018-11-13T01:21:27.596Z,0
2018-11-13T01:22:08.012Z,0
2018-11-13T01:22:48.424Z,0
2018-11-13T01:23:28.815Z,0
2018-11-13T01:24:09.243Z,0
2018-11-13T01:24:49.606Z,0
2018-11-13T01:25:30.004Z,0
2018-11-13T01:26:10.388Z,0
2018-11-13T01:26:50.814Z,0
2018-11-13T01:30:03.867Z,0
2018-11-13T01:30:55.895Z,0
2018-11-13T01:31:48.209Z,0
2018-11-13T01:32:40.164Z,0
2018-11-13T01:33:32.098Z,0
2018-11-13T01:34:24.476Z,0
2018-11-13T01:35:16.972Z,0
2018-11-13T01:36:09.016Z,0
2018-11-13T01:37:02.056Z,0
2018-11-13T01:37:53.976Z,0
2018-11-13T01:38:46.640Z,0
2018-11-13T01:39:38.804Z,0
2018-11-13T01:40:31.115Z,0
2018-11-13T01:41:23.429Z,0
2018-11-13T01:42:15.436Z,0
2018-11-13T01:43:07.393Z,0
2018-11-13T01:43:59.884Z,0
2018-11-13T01:44:51.851Z,0
2018-11-13T01:45:44.190Z,0
2018-11-13T01:46:37.481Z,0
2018-11-13T01:47:29.975Z,0
2018-11-13T01:48:22.527Z,0
2018-11-13T01:49:15.088Z,0
2018-11-13T01:50:07.267Z,0
2018-11-13T01:51:00.758Z,0
2018-11-13T01:51:53.020Z,0
2018-11-13T01:52:44.866Z,0
2018-11-13T01:53:36.852Z,0
2018-11-13T01:54:28.674Z,0
2018-11-13T01:55:20.745Z,0
2018-11-13T01:56:12.777Z,0
2018-11-13T01:57:05.289Z,0
2018-11-13T01:57:57.298Z,0
2018-11-13T01:58:49.338Z,0
2018-11-13T01:59:41.383Z,0
2018-11-13T02:00:33.078Z,0
2018-11-13T02:01:15.310Z,0
2018-11-13T02:01:55.652Z,0
2018-11-13T02:02:36.116Z,0
2018-11-13T02:03:16.506Z,0
2018-11-13T02:03:56.857Z,0
2018-11-13T02:04:37.417Z,0
2018-11-13T02:05:17.811Z,0
2018-11-13T02:05:58.375Z,0
2018-11-13T02:06:38.626Z,0
2018-11-13T02:07:19.137Z,0
2018-11-13T02:07:59.519Z,0
2018-11-13T02:08:39.919Z,0
2018-11-13T02:09:20.360Z,0
2018-11-13T02:10:00.776Z,0
2018-11-13T02:10:41.133Z,0
2018-11-13T02:11:21.648Z,0
2018-11-13T02:12:02.577Z,0
2018-11-13T02:12:42.959Z,0
2018-11-13T02:13:23.513Z,0
2018-11-13T02:14:03.816Z,0
2018-11-13T02:14:44.635Z,0
2018-11-13T02:15:25.184Z,0
2018-11-13T02:16:05.558Z,0
2018-11-13T02:16:45.957Z,0
2018-11-13T02:17:26.357Z,0
2018-11-13T02:18:06.830Z,0
2018-11-13T02:18:47.208Z,0
2018-11-13T02:19:28.165Z,0
2018-11-13T02:20:09.613Z,0
2018-11-13T02:20:50.487Z,0
2018-11-13T02:21:30.771Z,0
2018-11-13T02:22:13.541Z,0
2018-11-13T02:22:54.179Z,0
2018-11-13T02:23:35.361Z,0
2018-11-13T02:24:16.123Z,0
2018-11-13T02:24:57.977Z,0
2018-11-13T02:25:38.198Z,0
2018-11-13T02:26:18.604Z,0
2018-11-13T02:26:59.047Z,0
2018-11-13T02:27:39.502Z,0
2018-11-13T02:28:19.919Z,0
2018-11-13T02:29:00.287Z,0
2018-11-13T02:29:40.691Z,0
2018-11-13T02:30:21.115Z,0
2018-11-13T02:31:01.519Z,0
2018-11-13T02:31:41.886Z,0
2018-11-13T02:32:22.305Z,0
2018-11-13T02:33:02.726Z,0
2018-11-13T02:33:43.268Z,0
2018-11-13T02:34:32.431Z,0
2018-11-13T02:35:32.864Z,0
2018-11-13T02:36:13.146Z,0
2018-11-13T02:36:53.560Z,0
2018-11-13T02:37:33.970Z,0
2018-11-13T02:38:14.616Z,0
2018-11-13T02:38:55.052Z,0
2018-11-13T02:39:35.634Z,0
2018-11-13T02:40:16.386Z,0
2018-11-13T02:40:56.756Z,0
2018-11-13T02:41:37.224Z,0
2018-11-13T02:42:17.508Z,0
2018-11-13T02:42:58.008Z,0
2018-11-13T02:43:38.401Z,0
2018-11-13T02:44:18.775Z,0
2018-11-13T02:44:59.187Z,0
2018-11-13T02:45:39.630Z,0
2018-11-13T02:46:20.123Z,0
2018-11-13T02:47:00.431Z,0
2018-11-13T02:47:40.816Z,0
2018-11-13T02:48:21.275Z,0
2018-11-13T02:49:01.632Z,0
2018-11-13T02:49:41.997Z,0
2018-11-13T02:50:22.389Z,0
2018-11-13T02:51:02.769Z,0
2018-11-13T02:51:43.207Z,0
2018-11-13T02:52:23.577Z,0
2018-11-13T02:53:04.094Z,0
2018-11-13T02:53:44.505Z,0
2018-11-13T02:54:24.947Z,0
2018-11-13T02:55:05.179Z,0
2018-11-13T02:55:45.590Z,0
2018-11-13T02:56:26.001Z,0
2018-11-13T02:57:06.410Z,0
2018-11-13T02:57:46.847Z,0
2018-11-13T02:58:27.241Z,0
2018-11-13T02:59:07.584Z,0
2018-11-13T02:59:47.977Z,0
2018-11-13T03:00:28.468Z,0
2018-11-13T03:01:09.127Z,0
2018-11-13T03:01:49.908Z,0
2018-11-13T03:02:30.599Z,0
2018-11-13T03:03:11.060Z,0
2018-11-13T03:03:51.716Z,0
2018-11-13T03:04:32.053Z,0
2018-11-13T03:05:13.865Z,0
2018-11-13T03:05:54.010Z,0
2018-11-13T03:06:34.494Z,0
2018-11-13T03:07:14.949Z,0
2018-11-13T03:07:55.352Z,0
2018-11-13T03:08:35.706Z,0
2018-11-13T03:09:16.425Z,0
2018-11-13T03:09:56.971Z,0
2018-11-13T03:10:37.247Z,0
2018-11-13T03:11:17.919Z,0
2018-11-13T03:11:58.473Z,0
2018-11-13T03:12:38.815Z,0
2018-11-13T03:13:19.244Z,0
2018-11-13T03:13:59.855Z,0
2018-11-13T03:14:40.150Z,0
2018-11-13T03:15:20.589Z,0
2018-11-13T03:16:00.981Z,0
2018-11-13T03:16:41.359Z,0
2018-11-13T03:17:22.479Z,0
2018-11-13T03:18:02.968Z,0
2018-11-13T03:18:44.372Z,0
2018-11-13T03:19:24.833Z,0
2018-11-13T03:20:05.268Z,0
2018-11-13T03:20:47.514Z,0
2018-11-13T03:21:29.968Z,0
2018-11-13T03:22:12.491Z,0
2018-11-13T03:22:53.704Z,0
2018-11-13T03:23:35.037Z,0
2018-11-13T03:24:16.123Z,0
2018-11-13T03:24:57.161Z,0
2018-11-13T03:25:37.888Z,0
2018-11-13T03:26:18.310Z,0
2018-11-13T03:26:59.454Z,0
2018-11-13T03:27:40.247Z,0
2018-11-13T03:28:20.733Z,0
2018-11-13T03:29:01.101Z,0
2018-11-13T03:29:41.559Z,0
2018-11-13T03:30:22.009Z,0
2018-11-13T03:31:03.039Z,0
2018-11-13T03:31:43.379Z,0
2018-11-13T03:32:23.750Z,0
2018-11-13T03:33:04.118Z,0
2018-11-13T03:33:44.639Z,0
2018-11-13T03:34:25.256Z,0
2018-11-13T03:35:05.549Z,0
2018-11-13T03:35:46.214Z,0
2018-11-13T03:36:26.507Z,0
2018-11-13T03:37:06.829Z,0
2018-11-13T03:37:47.439Z,0
2018-11-13T03:38:27.744Z,0
2018-11-13T03:39:08.620Z,0
2018-11-13T03:39:49.069Z,0
2018-11-13T03:40:29.521Z,0
2018-11-13T03:41:09.995Z,0
2018-11-13T03:41:50.466Z,0
2018-11-13T03:42:31.000Z,0
2018-11-13T03:43:11.361Z,0
2018-11-13T03:43:51.748Z,0
2018-11-13T03:44:32.153Z,0
2018-11-13T03:45:12.519Z,0
2018-11-13T03:45:52.907Z,0
2018-11-13T03:46:33.278Z,0
2018-11-13T03:47:13.835Z,0
2018-11-13T03:47:54.172Z,0
2018-11-13T03:48:34.530Z,0
2018-11-13T03:49:15.004Z,0
2018-11-13T03:49:55.357Z,0
2018-11-13T03:50:35.775Z,0
2018-11-13T03:51:16.275Z,0
2018-11-13T03:51:56.910Z,0
2018-11-13T03:52:37.308Z,0
2018-11-13T03:53:17.701Z,0
2018-11-13T03:53:58.094Z,0
2018-11-13T03:54:38.526Z,0
2018-11-13T03:55:19.234Z,0
2018-11-13T03:55:59.748Z,0
2018-11-13T03:56:40.275Z,0
2018-11-13T03:57:20.689Z,0
2018-11-13T03:58:01.074Z,0
2018-11-13T03:58:41.793Z,0
2018-11-13T03:59:22.124Z,0
2018-11-13T04:00:02.584Z,0
2018-11-13T04:00:42.970Z,0
2018-11-13T04:01:23.515Z,0
2018-11-13T04:02:03.788Z,0
2018-11-13T04:02:44.285Z,0
2018-11-13T04:03:24.612Z,0
2018-11-13T04:04:05.133Z,0
2018-11-13T04:04:45.678Z,0
2018-11-13T04:05:25.886Z,0
2018-11-13T04:06:07.190Z,0
2018-11-13T04:06:47.527Z,0
2018-11-13T04:07:27.993Z,0
2018-11-13T04:08:08.524Z,0
2018-11-13T04:08:48.811Z,0
2018-11-13T04:09:29.678Z,0
2018-11-13T04:10:10.158Z,0
2018-11-13T04:10:50.532Z,0
2018-11-13T04:11:31.022Z,0
2018-11-13T04:12:11.420Z,0
2018-11-13T04:12:51.856Z,0
2018-11-13T04:13:32.385Z,0
2018-11-13T04:14:12.848Z,0
2018-11-13T04:14:53.200Z,0
2018-11-13T04:15:33.704Z,0
2018-11-13T04:16:14.167Z,0
2018-11-13T04:16:54.662Z,0
2018-11-13T04:17:35.399Z,0
2018-11-13T04:18:16.168Z,0
2018-11-13T04:18:56.820Z,0
2018-11-13T04:19:37.026Z,0
2018-11-13T04:20:17.607Z,0
2018-11-13T04:20:58.128Z,0
2018-11-13T04:21:38.710Z,0
2018-11-13T04:22:19.194Z,0
2018-11-13T04:22:59.516Z,0
2018-11-13T04:23:39.919Z,0
2018-11-13T04:24:25.081Z,0
2018-11-13T04:25:06.060Z,0
2018-11-13T04:25:46.496Z,0
2018-11-13T04:26:27.662Z,0
2018-11-13T04:27:10.662Z,0
2018-11-13T05:10:42.232Z,0
2018-11-13T05:11:39.462Z,0
2018-11-13T05:12:32.712Z,0
2018-11-13T05:13:26.400Z,0
2018-11-13T05:14:21.105Z,0
2018-11-13T05:15:13.227Z,0
2018-11-13T05:16:05.270Z,0
2018-11-13T05:16:57.566Z,0
2018-11-13T05:17:49.988Z,0
2018-11-13T05:18:42.409Z,0
2018-11-13T05:19:36.159Z,0
2018-11-13T05:20:31.059Z,0
2018-11-13T05:21:28.019Z,0
2018-11-13T05:22:20.306Z,0
2018-11-13T05:23:13.124Z,0
2018-11-13T05:24:06.839Z,0
2018-11-13T05:24:58.584Z,0
2018-11-13T05:25:50.811Z,0
2018-11-13T05:26:44.576Z,0
2018-11-13T05:27:37.557Z,0
2018-11-13T05:28:30.164Z,0
2018-11-13T05:29:25.788Z,0
2018-11-13T05:30:18.158Z,0
2018-11-13T05:31:13.607Z,0
2018-11-13T05:32:07.449Z,0
2018-11-13T05:38:07.184Z,0
2018-11-13T05:39:00.832Z,0
2018-11-13T05:39:54.289Z,0
2018-11-13T05:40:47.363Z,0
2018-11-13T05:41:41.699Z,0
2018-11-13T05:42:33.559Z,0
2018-11-13T05:44:55.484Z,0
2018-11-13T05:45:37.355Z,0
2018-11-13T05:46:17.751Z,0
2018-11-13T05:46:58.275Z,0
2018-11-13T05:47:38.913Z,0
2018-11-13T05:48:19.244Z,0
2018-11-13T05:48:59.635Z,0
2018-11-13T05:49:40.178Z,0
2018-11-13T05:50:20.509Z,0
2018-11-13T05:51:00.897Z,0
2018-11-13T05:51:42.367Z,0
2018-11-13T05:54:07.487Z,0
2018-11-13T05:54:59.570Z,0
2018-11-13T05:57:02.125Z,0
2018-11-13T05:57:41.172Z,0
2018-11-13T05:58:21.899Z,0
2018-11-13T05:59:02.987Z,0
2018-11-13T05:59:42.831Z,0
2018-11-13T06:00:23.257Z,0
2018-11-13T06:01:05.325Z,0
2018-11-13T06:01:45.895Z,0
2018-11-13T06:02:26.354Z,0
2018-11-13T06:03:08.012Z,0
2018-11-13T06:03:49.315Z,0
2018-11-13T06:04:30.342Z,0
2018-11-13T06:05:11.161Z,0
2018-11-13T06:05:51.710Z,0
2018-11-13T06:06:32.083Z,0
2018-11-13T06:07:12.770Z,0
2018-11-13T06:07:53.116Z,0
2018-11-13T06:08:33.712Z,0
2018-11-13T06:09:14.368Z,0
2018-11-13T06:09:55.291Z,0
2018-11-13T06:10:35.646Z,0
2018-11-13T06:11:16.629Z,0
2018-11-13T06:11:57.035Z,0
2018-11-13T06:12:37.608Z,0
2018-11-13T06:13:17.993Z,0
2018-11-13T06:13:59.762Z,0
2018-11-13T06:14:41.732Z,0
2018-11-13T06:15:22.227Z,0
2018-11-13T06:16:02.673Z,0
2018-11-13T06:16:43.953Z,0
2018-11-13T06:17:24.798Z,0
2018-11-13T06:18:07.239Z,0
2018-11-13T06:18:47.997Z,0
2018-11-13T06:19:28.366Z,0
2018-11-13T06:20:08.879Z,0
2018-11-13T06:20:49.351Z,0
2018-11-13T06:21:31.883Z,0
2018-11-13T06:22:12.489Z,0
2018-11-13T06:22:54.061Z,0
2018-11-13T06:23:34.379Z,0
2018-11-13T06:24:15.147Z,0
2018-11-13T06:24:55.681Z,0
2018-11-13T06:25:37.609Z,0
2018-11-13T06:26:18.821Z,4
2018-11-13T06:27:05.094Z,4
2018-11-13T06:29:35.381Z,4
2018-11-13T06:30:15.903Z,4
2018-11-13T06:30:56.494Z,4
2018-11-13T06:31:36.873Z,4
2018-11-13T06:32:17.751Z,8
2018-11-13T06:32:58.734Z,12
2018-11-13T06:33:39.436Z,12
2018-11-13T06:34:19.850Z,16
2018-11-13T06:35:00.378Z,16
2018-11-13T06:35:40.868Z,16
2018-11-13T06:36:21.306Z,20
2018-11-13T06:37:01.981Z,20
2018-11-13T06:37:42.742Z,24
2018-11-13T06:38:23.690Z,24
2018-11-13T06:39:03.972Z,24
2018-11-13T06:39:44.479Z,28
2018-11-13T06:40:24.960Z,28
2018-11-13T06:41:05.368Z,28
2018-11-13T06:41:45.817Z,32
2018-11-13T06:42:26.397Z,36
2018-11-13T06:43:06.912Z,36
2018-11-13T06:47:46.158Z,52
2018-11-13T06:48:27.075Z,60
2018-11-13T06:49:07.712Z,60
2018-11-13T06:49:50.066Z,64
2018-11-13T06:50:30.524Z,68
2018-11-13T06:51:10.965Z,72
2018-11-13T06:51:51.519Z,72
2018-11-13T06:52:33.184Z,76
2018-11-13T06:55:03.266Z,84
2018-11-13T06:55:43.726Z,88
2018-11-13T06:56:27.618Z,92
2018-11-13T06:57:08.691Z,96
2018-11-13T06:57:49.139Z,100
2018-11-13T07:08:53.389Z,172
2018-11-13T07:09:35.533Z,176
2018-11-13T07:10:16.336Z,180
2018-11-13T07:10:56.698Z,188
2018-11-13T07:11:37.130Z,196
2018-11-13T07:12:18.849Z,200
2018-11-13T07:12:59.626Z,200
2018-11-13T07:13:40.952Z,204
2018-11-13T07:14:21.555Z,204
2018-11-13T07:15:02.008Z,204
2018-11-13T07:26:19.666Z,396
2018-11-13T07:27:14.957Z,436
2018-11-13T07:28:07.889Z,532
2018-11-13T07:29:01.290Z,524
2018-11-13T07:29:54.377Z,792
2018-11-13T07:30:46.682Z,808
2018-11-13T07:31:39.283Z,616
2018-11-13T07:32:33.902Z,704
2018-11-13T07:33:27.385Z,732
2018-11-13T07:34:23.132Z,1020
2018-11-13T07:35:17.725Z,1036
2018-11-13T07:36:12.353Z,904
2018-11-13T07:37:28.715Z,804
2018-11-13T07:40:50.624Z,912
2018-11-13T07:41:50.398Z,904
2018-11-13T07:53:37.753Z,1040
2018-11-13T07:54:18.378Z,1100
2018-11-13T07:54:58.883Z,1128
2018-11-13T07:55:39.416Z,1136
2018-11-13T07:56:20.323Z,1064
2018-11-13T07:57:00.997Z,1184
2018-11-13T07:57:42.738Z,1276
2018-11-13T08:02:50.080Z,1396
2018-11-13T08:03:30.334Z,1216
2018-11-13T08:04:10.881Z,1012
2018-11-13T08:04:51.462Z,1056
2018-11-13T08:05:31.908Z,1032
2018-11-13T08:06:12.829Z,920
2018-11-13T08:06:53.175Z,704
2018-11-13T08:07:33.701Z,664
2018-11-13T08:08:14.072Z,668
2018-11-13T08:08:54.353Z,648
2018-11-13T08:09:34.719Z,816
2018-11-13T08:10:15.280Z,588
2018-11-13T08:10:55.607Z,648
2018-11-13T08:11:36.082Z,524
2018-11-13T08:12:16.937Z,556
2018-11-13T08:12:57.426Z,532
2018-11-13T08:13:38.363Z,544
2018-11-13T08:14:19.790Z,540
2018-11-13T08:14:59.740Z,564
2018-11-13T08:15:40.390Z,580
2018-11-13T08:16:21.030Z,604
2018-11-13T08:17:01.419Z,656
2018-11-13T08:17:41.996Z,668
2018-11-13T08:18:22.590Z,640
2018-11-13T08:19:02.993Z,668
2018-11-13T08:19:43.610Z,688
2018-11-13T08:20:24.990Z,708
2018-11-13T08:21:05.893Z,732
2018-11-13T08:21:46.298Z,756
2018-11-13T08:22:26.746Z,756
2018-11-13T08:23:10.366Z,756
2018-11-13T08:23:50.801Z,768
2018-11-13T08:41:39.512Z,740
2018-11-13T08:52:07.208Z,1076
2018-11-13T08:52:47.988Z,1092
2018-11-13T08:53:29.098Z,1156
2018-11-13T08:54:13.055Z,1132
2018-11-13T08:54:56.665Z,1104
2018-11-13T08:55:38.433Z,1084
2018-11-13T08:56:19.816Z,1084
2018-11-13T08:57:01.949Z,1088
2018-11-13T08:57:43.289Z,1104
2018-11-13T08:58:24.917Z,1108
2018-11-13T08:59:05.879Z,1112
2018-11-13T08:59:47.047Z,1112
2018-11-13T09:00:28.075Z,1108
2018-11-13T09:01:09.083Z,1096
2018-11-13T09:01:49.412Z,1100
2018-11-13T09:02:30.548Z,1096
2018-11-13T09:03:11.921Z,1104
2018-11-13T09:03:52.384Z,1116
2018-11-13T09:04:33.764Z,1132
2018-11-13T09:05:15.199Z,1140
2018-11-13T09:05:56.338Z,1136
2018-11-13T09:06:36.952Z,1136
2018-11-13T09:07:21.412Z,1136
2018-11-13T09:08:03.996Z,1128
2018-11-13T09:08:45.674Z,1140
2018-11-13T09:09:26.058Z,1172
2018-11-13T09:10:07.452Z,1164
2018-11-13T09:10:49.287Z,1148
2018-11-13T09:11:29.933Z,1144
2018-11-13T09:12:12.133Z,1160
2018-11-13T09:12:53.059Z,1160
2018-11-13T09:13:34.585Z,1180
2018-11-13T09:14:16.790Z,1256
2018-11-13T09:14:57.259Z,1284
2018-11-13T09:15:40.699Z,1280
2018-11-13T09:16:21.632Z,1280
2018-11-13T09:17:03.591Z,1288
2018-11-13T09:17:43.656Z,1252
2018-11-13T09:18:25.056Z,1216
2018-11-13T09:19:05.740Z,1192
2018-11-13T09:19:47.533Z,1168
2018-11-13T09:20:28.678Z,1160
2018-11-13T09:21:09.971Z,1180
2018-11-13T09:21:51.236Z,1188
2018-11-13T09:22:32.305Z,1192
2018-11-13T09:23:12.988Z,1196
2018-11-13T09:23:53.747Z,1212
2018-11-13T09:24:34.901Z,1152
2018-11-13T09:25:19.114Z,1212
2018-11-13T09:25:59.984Z,1216
2018-11-13T09:26:40.503Z,1224
2018-11-13T09:27:22.182Z,1228
2018-11-13T09:28:02.590Z,1232
2018-11-13T09:28:43.389Z,1228
2018-11-13T09:29:23.992Z,1224
2018-11-13T09:30:04.889Z,1208
2018-11-13T09:30:45.948Z,1212
2018-11-13T09:31:26.403Z,908
2018-11-13T09:32:07.389Z,1196
2018-11-13T09:32:49.134Z,1184
2018-11-13T09:33:29.387Z,1176
2018-11-13T09:34:11.077Z,1168
2018-11-13T09:34:50.859Z,1160
2018-11-13T09:35:32.859Z,1164
2018-11-13T09:36:14.009Z,1164
2018-11-13T09:36:54.649Z,1164
2018-11-13T09:37:36.231Z,1160
2018-11-13T09:38:16.450Z,1160
2018-11-13T09:38:57.202Z,1156
2018-11-13T09:39:39.594Z,1160
2018-11-13T09:40:20.021Z,1252
2018-11-13T09:41:01.135Z,1372
2018-11-13T09:41:41.482Z,1384
2018-11-13T09:42:22.649Z,1376
2018-11-13T09:43:03.414Z,1336
2018-11-13T09:43:44.549Z,1336
2018-11-13T09:44:26.587Z,1324
2018-11-13T09:45:07.556Z,1368
2018-11-13T09:45:49.497Z,1360
2018-11-13T09:46:30.590Z,1344
2018-11-13T09:47:10.362Z,1240
2018-11-13T09:47:51.377Z,1400
2018-11-13T09:48:32.238Z,1396
2018-11-13T09:49:12.884Z,1396
2018-11-13T09:49:54.480Z,1412
2018-11-13T09:50:36.175Z,1408
2018-11-13T09:51:16.639Z,1388
2018-11-13T09:52:01.606Z,1400
2018-11-13T09:52:44.088Z,1464
2018-11-13T09:53:24.339Z,1492
2018-11-13T09:54:05.696Z,1480
2018-11-13T09:54:46.530Z,1496
2018-11-13T09:55:30.823Z,1436
2018-11-13T09:56:11.079Z,1396
2018-11-13T09:56:51.683Z,1368
2018-11-13T09:57:32.183Z,1332
2018-11-13T09:58:16.709Z,1292
2018-11-13T09:58:59.572Z,1268
2018-11-13T10:02:34.784Z,1180
2018-11-13T10:03:17.792Z,1396
2018-11-13T10:03:58.118Z,1608
2018-11-13T10:04:38.812Z,1680
2018-11-13T10:05:19.677Z,1692
2018-11-13T10:06:00.526Z,1844
2018-11-13T10:06:44.049Z,1824
2018-11-13T10:07:25.584Z,1648
2018-11-13T10:08:07.084Z,1396
2018-11-13T10:08:48.216Z,1500
2018-11-13T10:09:29.210Z,1176
2018-11-13T10:10:09.901Z,1072
2018-11-13T10:10:50.670Z,1304
2018-11-13T10:11:31.295Z,1028
2018-11-13T10:12:12.946Z,1016
2018-11-13T10:12:53.821Z,840
2018-11-13T10:13:34.372Z,776
2018-11-13T10:14:14.979Z,692
2018-11-13T10:14:56.715Z,676
2018-11-13T10:15:37.418Z,716
2018-11-13T10:16:18.453Z,672
2018-11-13T10:16:58.934Z,616
2018-11-13T10:17:39.805Z,640
2018-11-13T10:18:22.504Z,636
2018-11-13T10:19:04.337Z,652
2018-11-13T10:19:45.581Z,784
2018-11-13T10:20:26.463Z,832
2018-11-13T10:21:07.742Z,928
2018-11-13T10:21:49.309Z,784
2018-11-13T10:22:33.204Z,680
2018-11-13T10:23:13.951Z,620
2018-11-13T10:23:56.433Z,588
2018-11-13T10:24:37.095Z,604
2018-11-13T10:25:20.443Z,624
2018-11-13T10:26:01.107Z,660
2018-11-13T10:26:41.974Z,712
2018-11-13T10:27:22.750Z,768
2018-11-13T10:28:03.899Z,1196
2018-11-13T10:28:45.583Z,1268
2018-11-13T11:10:46.840Z,1380
2018-11-13T11:11:27.486Z,1316
2018-11-13T11:12:08.194Z,1220
2018-11-13T11:12:49.806Z,1180
2018-11-13T11:13:31.721Z,1188
2018-11-13T11:14:14.279Z,1160
2018-11-13T11:14:56.379Z,1192
2018-11-13T11:15:37.675Z,1320
2018-11-13T11:16:18.438Z,1376
2018-11-13T11:16:58.801Z,1520
2018-11-13T11:17:39.500Z,1316
2018-11-13T11:18:20.305Z,1260
2018-11-13T11:19:00.865Z,1280
2018-11-13T11:19:41.244Z,1148
2018-11-13T11:20:21.683Z,1260
2018-11-13T11:21:02.190Z,1224
2018-11-13T11:21:43.465Z,988
2018-11-13T11:22:25.476Z,1248
2018-11-13T11:23:08.187Z,1296
2018-11-13T11:23:51.121Z,904
2018-11-13T11:24:32.609Z,1272
2018-11-13T11:25:13.728Z,1264
2018-11-13T11:25:55.014Z,1248
2018-11-13T11:26:36.007Z,1448
2018-11-13T11:27:16.462Z,1372
2018-11-13T11:27:56.961Z,1092
2018-11-13T11:28:37.443Z,1236
2018-11-13T11:29:18.900Z,1208
2018-11-13T11:30:00.104Z,1160
2018-11-13T11:30:40.217Z,1256
2018-11-13T11:31:20.987Z,1176
2018-11-13T11:32:02.191Z,1300
2018-11-13T11:32:43.023Z,1180
2018-11-13T11:33:24.059Z,1132
2018-11-13T11:34:04.421Z,1100
2018-11-13T11:34:45.034Z,1064
2018-11-13T11:35:25.565Z,1076
2018-11-13T11:36:06.031Z,1048
2018-11-13T11:36:46.865Z,1044
2018-11-13T11:37:27.280Z,1044
2018-11-13T11:38:07.986Z,1040
2018-11-13T11:38:48.664Z,1056
2018-11-13T11:39:29.600Z,1064
2018-11-13T11:40:09.867Z,1084
2018-11-13T11:40:50.311Z,1072
2018-11-13T11:41:30.849Z,1140
2018-11-13T11:42:11.629Z,1100
2018-11-13T11:42:52.345Z,1140
2018-11-13T11:43:33.082Z,1144
2018-11-13T11:44:13.545Z,1164
2018-11-13T11:44:54.030Z,1112
2018-11-13T11:45:35.102Z,1088
2018-11-13T11:46:15.611Z,1072
2018-11-13T11:46:56.237Z,1068
2018-11-13T11:47:36.568Z,1064
2018-11-13T11:48:17.458Z,1064
2018-11-13T11:49:01.236Z,1064
2018-11-13T11:49:41.893Z,1060
2018-11-13T11:50:22.340Z,1044
2018-11-13T11:51:03.074Z,1040
2018-11-13T11:51:44.510Z,1044
2018-11-13T11:52:25.194Z,1040
2018-11-13T11:53:05.909Z,1048
2018-11-13T11:53:46.346Z,1044
2018-11-13T11:54:27.920Z,1064
2018-11-13T11:55:07.735Z,1080
2018-11-13T11:55:48.566Z,1104
2018-11-13T11:56:33.108Z,1120
2018-11-13T11:57:14.518Z,1140
2018-11-13T11:57:54.755Z,1112
2018-11-13T11:58:35.259Z,1088
2018-11-13T11:59:15.718Z,1052
2018-11-13T11:59:56.421Z,836
2018-11-13T12:00:36.815Z,1028
2018-11-13T12:01:17.390Z,1028
2018-11-13T12:01:58.738Z,1040
2018-11-13T12:02:39.173Z,1044
2018-11-13T12:03:20.129Z,1040
2018-11-13T12:04:00.510Z,1060
2018-11-13T12:04:40.997Z,1064
2018-11-13T12:05:21.442Z,1052
2018-11-13T12:06:02.127Z,1044
2018-11-13T12:06:42.938Z,1056
2018-11-13T12:07:23.837Z,1056
2018-11-13T12:08:04.388Z,1060
2018-11-13T12:08:44.843Z,1068
2018-11-13T12:09:25.501Z,1064
2018-11-13T12:10:05.944Z,1068
2018-11-13T12:10:46.440Z,1068
2018-11-13T12:11:27.280Z,1068
2018-11-13T12:12:07.843Z,1076
2018-11-13T12:12:48.253Z,1104
2018-11-13T12:13:28.951Z,1116
2018-11-13T12:14:11.135Z,1168
2018-11-13T12:14:52.134Z,1268
2018-11-13T12:15:32.740Z,1192
2018-11-13T12:16:13.891Z,1200
2018-11-13T12:16:54.189Z,1204
2018-11-13T12:17:36.166Z,1224
2018-11-13T12:18:19.795Z,1160
2018-11-13T12:19:01.087Z,1180
2018-11-13T12:19:43.063Z,1184
2018-11-13T12:20:24.556Z,1308
2018-11-13T12:21:05.143Z,1212
2018-11-13T12:21:46.313Z,988
2018-11-13T12:22:27.290Z,1020
2018-11-13T12:23:09.209Z,996
2018-11-13T12:23:50.019Z,1108
2018-11-13T12:24:30.761Z,1100
2018-11-13T12:25:11.474Z,1184
2018-11-13T12:25:53.310Z,1344
2018-11-13T12:26:34.162Z,1280
2018-11-13T12:27:14.277Z,1240
2018-11-13T12:27:54.952Z,1208
2018-11-13T12:28:36.133Z,1240
2018-11-13T12:29:16.252Z,1228
2018-11-13T12:31:34.884Z,1180
2018-11-13T12:32:16.883Z,1152
2018-11-13T12:32:57.082Z,1120
2018-11-13T12:33:37.801Z,1104
2018-11-13T12:34:18.628Z,1088
2018-11-13T12:35:00.084Z,1092
2018-11-13T12:35:39.901Z,1088
2018-11-13T12:36:20.767Z,1080
2018-11-13T12:37:01.459Z,1072
2018-11-13T12:37:42.206Z,1072
2018-11-13T12:38:23.684Z,1064
2018-11-13T12:39:06.019Z,1060
2018-11-13T12:39:47.313Z,1048
2018-11-13T12:40:27.732Z,1068
2018-11-13T12:41:08.071Z,1068
2018-11-13T12:41:48.587Z,956
2018-11-13T12:42:29.193Z,1048
2018-11-13T12:43:09.694Z,1076
2018-11-13T12:43:50.200Z,1088
2018-11-13T12:44:30.683Z,1068
2018-11-13T12:45:11.235Z,1068
2018-11-13T12:45:52.065Z,1064
2018-11-13T12:46:32.439Z,1072
2018-11-13T12:47:13.530Z,1072
2018-11-13T12:47:54.054Z,1052
2018-11-13T12:48:34.542Z,1036
2018-11-13T12:49:15.198Z,780
2018-11-13T12:49:55.947Z,856
2018-11-13T12:50:36.399Z,836
2018-11-13T12:51:17.487Z,696
2018-11-13T12:51:58.435Z,688
2018-11-13T12:52:39.266Z,684
2018-11-13T12:53:21.129Z,736
2018-11-13T12:54:00.746Z,784
2018-11-13T12:54:41.668Z,800
2018-11-13T12:55:24.136Z,848
2018-11-13T12:56:04.892Z,1016